Time;durP1;ratioP1;P1;durP2;ratioP2;P2;SDS_P1;SDS_P2;PMS_P1;PMS_P2;Temp;Humidity;BMP_temperature;BMP_pressure;BME280_temperature;BME280_humidity;BME280_pressure;Samples;Min_cycle;Max_cycle;Signal;HPM_P1;HPM_P2
2023/01/13 00:00:44;;;;;;;34.42;5.28;;;;;;;6.33;100.00;100325.09;5052271;28;20032;-75
2023/01/13 00:03:09;;;;;;;35.92;4.78;;;;;;;6.33;100.00;100339.13;5053103;28;20036;-75
2023/01/13 00:05:36;;;;;;;36.33;4.45;;;;;;;6.34;100.00;100338.16;5053140;28;20144;-75
2023/01/13 00:08:04;;;;;;;35.33;4.45;;;;;;;6.34;100.00;100345.25;5052833;28;20035;-75
2023/01/13 00:10:29;;;;;;;44.28;6.40;;;;;;;6.49;100.00;100337.88;5052738;28;20082;-75
2023/01/13 00:12:55;;;;;;;35.10;5.07;;;;;;;6.55;100.00;100337.38;5052894;28;20029;-75
2023/01/13 00:15:20;;;;;;;48.53;5.95;;;;;;;6.55;100.00;100332.09;5053021;28;20033;-75
2023/01/13 00:17:47;;;;;;;42.35;5.35;;;;;;;6.62;100.00;100338.53;5052571;28;20029;-75
2023/01/13 00:20:13;;;;;;;39.60;6.53;;;;;;;6.65;100.00;100324.25;5052748;28;20056;-75
2023/01/13 00:22:38;;;;;;;29.48;5.47;;;;;;;6.69;100.00;100328.31;5052820;28;20099;-75
2023/01/13 00:25:05;;;;;;;33.33;4.95;;;;;;;6.71;100.00;100324.56;5053093;28;20426;-75
2023/01/13 00:27:31;;;;;;;33.63;4.80;;;;;;;6.75;100.00;100327.81;5052954;28;20095;-75
2023/01/13 00:29:57;;;;;;;40.65;5.78;;;;;;;6.79;100.00;100315.16;5053088;28;20116;-74
2023/01/13 00:32:22;;;;;;;33.35;6.05;;;;;;;6.86;100.00;100317.16;5052690;28;20425;-75
2023/01/13 00:34:47;;;;;;;38.55;5.68;;;;;;;6.82;100.00;100299.91;5053476;28;20025;-74
2023/01/13 00:37:13;;;;;;;32.67;4.93;;;;;;;6.78;100.00;100306.41;5051332;28;20457;-73
2023/01/13 00:39:39;;;;;;;42.10;5.78;;;;;;;6.80;100.00;100314.22;5052646;28;20041;-74
2023/01/13 00:44:50;;;;;;;38.67;5.55;;;;;;;6.68;100.00;100310.78;5052969;28;20080;-74
2023/01/13 00:47:15;;;;;;;28.73;4.55;;;;;;;6.62;100.00;100303.34;5051072;28;20041;-74
2023/01/13 00:49:40;;;;;;;35.38;5.05;;;;;;;6.64;100.00;100281.13;5052514;28;20068;-75
2023/01/13 00:52:06;;;;;;;35.47;5.50;;;;;;;6.60;100.00;100279.69;5052496;28;20087;-74
2023/01/13 00:54:31;;;;;;;39.83;7.00;;;;;;;6.52;100.00;100287.41;5052402;28;20489;-73
2023/01/13 00:56:56;;;;;;;37.83;5.90;;;;;;;6.49;100.00;100288.50;5052071;28;20061;-74
2023/01/13 00:59:22;;;;;;;40.08;5.93;;;;;;;6.43;100.00;100294.28;5052374;28;20041;-74
2023/01/13 01:01:47;;;;;;;35.28;5.57;;;;;;;6.38;100.00;100309.69;5052620;28;20040;-76
2023/01/13 01:04:13;;;;;;;57.47;5.72;;;;;;;6.41;100.00;100290.09;5052350;28;20470;-73
2023/01/13 01:06:38;;;;;;;40.05;5.38;;;;;;;6.39;100.00;100290.22;5052558;28;20037;-75
2023/01/13 01:09:04;;;;;;;33.55;5.32;;;;;;;6.45;100.00;100296.78;5052745;28;20040;-75
2023/01/13 01:11:31;;;;;;;33.17;5.30;;;;;;;6.52;100.00;100290.03;5052598;28;20477;-75
2023/01/13 01:13:59;;;;;;;46.80;6.20;;;;;;;6.54;100.00;100290.78;5056242;28;20141;-75
2023/01/13 01:16:27;;;;;;;49.70;6.18;;;;;;;6.50;100.00;100279.59;5056173;28;20032;-75
2023/01/13 01:18:53;;;;;;;42.38;6.00;;;;;;;6.46;100.00;100282.63;5055545;28;20444;-75
2023/01/13 01:21:19;;;;;;;45.20;6.57;;;;;;;6.46;100.00;100291.38;5056149;28;20461;-74
2023/01/13 01:23:45;;;;;;;44.17;6.85;;;;;;;6.48;100.00;100291.28;5055967;28;20094;-75
2023/01/13 01:26:16;;;;;;;39.50;5.85;;;;;;;6.49;100.00;100290.28;5056353;28;20037;-73
2023/01/13 01:28:42;;;;;;;;;;;;;;;6.49;100.00;100290.28;5056238;28;20025;-75
2023/01/13 01:31:13;;;;;;;34.92;5.75;;;;;;;6.45;100.00;100287.09;5055721;28;20252;-74
2023/01/13 01:33:40;;;;;;;39.97;5.45;;;;;;;6.50;100.00;100279.59;5055956;28;20039;-75
2023/01/13 01:36:06;;;;;;;41.75;6.72;;;;;;;6.54;100.00;100296.06;5055572;28;20128;-74
2023/01/13 01:38:32;;;;;;;53.90;7.22;;;;;;;6.47;100.00;100276.38;5054315;28;20036;-75
2023/01/13 01:40:58;;;;;;;39.53;5.90;;;;;;;6.44;100.00;100285.41;5055511;28;20029;-75
2023/01/13 01:43:59;;;;;;;45.40;6.30;;;;;;;6.50;100.00;100273.47;5055449;28;20037;-75
2023/01/13 01:46:34;;;;;;;41.30;5.95;;;;;;;6.52;100.00;100290.91;5056151;28;20033;-75
2023/01/13 01:49:02;;;;;;;38.22;6.47;;;;;;;6.47;100.00;100297.53;5055634;28;20033;-73
2023/01/13 01:51:31;;;;;;;36.72;5.35;;;;;;;6.51;100.00;100288.38;5055310;28;20472;-75
2023/01/13 01:53:59;;;;;;;42.95;6.35;;;;;;;6.60;100.00;100292.91;5055487;28;20029;-72
2023/01/13 01:56:24;;;;;;;51.60;6.78;;;;;;;6.70;100.00;100292.97;5055551;28;20048;-74
2023/01/13 01:58:52;;;;;;;47.47;7.05;;;;;;;6.75;100.00;100293.44;5055658;28;20460;-75
2023/01/13 02:01:17;;;;;;;45.42;7.88;;;;;;;6.79;100.00;100275.50;5054722;28;20024;-75
2023/01/13 02:03:51;;;;;;;44.17;6.60;;;;;;;6.81;100.00;100279.69;5053537;28;20036;-75
2023/01/13 02:06:17;;;;;;;50.05;6.30;;;;;;;6.85;100.00;100278.50;5055328;28;20056;-75
2023/01/13 02:08:42;;;;;;;50.90;5.95;;;;;;;6.89;100.00;100276.41;5055310;28;20060;-74
2023/01/13 02:12:28;;;;;;;61.47;6.50;;;;;;;6.87;100.00;100281.84;5055018;28;20061;-74
2023/01/13 02:14:11;;;;;;;45.25;6.72;;;;;;;6.89;100.00;100273.78;5054623;28;20120;-74
2023/01/13 02:16:45;;;;;;;53.78;7.35;;;;;;;6.97;100.00;100273.97;5055323;28;20120;-75
2023/01/13 02:19:23;;;;;;;43.53;6.00;;;;;;;6.99;100.00;100263.25;5054488;28;20166;-74
2023/01/13 02:22:28;;;;;;;37.47;6.90;;;;;;;7.00;100.00;100268.44;5054961;28;20054;-74
2023/01/13 02:25:12;;;;;;;60.10;7.22;;;;;;;7.00;100.00;100257.84;5054062;28;20043;-75
2023/01/13 02:27:52;;;;;;;44.95;6.40;;;;;;;7.02;100.00;100250.59;5054878;28;20037;-74
2023/01/13 02:33:37;;;;;;;56.88;7.97;;;;;;;7.05;100.00;100260.09;5055063;28;20473;-74
2023/01/13 02:36:05;;;;;;;50.42;7.80;;;;;;;7.07;100.00;100266.91;5054456;28;20411;-74
2023/01/13 02:38:49;;;;;;;44.50;6.20;;;;;;;7.16;100.00;100269.75;5054436;28;20582;-74
2023/01/13 02:44:09;;;;;;;52.45;6.53;;;;;;;7.28;100.00;100255.47;5054379;28;20051;-73
2023/01/13 02:46:38;;;;;;;52.08;7.15;;;;;;;7.30;100.00;100263.28;5054227;28;20033;-75
2023/01/13 02:49:09;;;;;;;53.92;8.65;;;;;;;7.37;100.00;100261.78;5054083;28;20029;-73
2023/01/13 02:51:37;;;;;;;45.03;7.45;;;;;;;7.36;100.00;100260.94;5054184;28;20033;-73
2023/01/13 02:54:13;;;;;;;47.75;7.07;;;;;;;7.33;100.00;100271.81;5054082;28;20112;-73
2023/01/13 02:56:43;;;;;;;49.53;7.35;;;;;;;7.26;100.00;100270.66;5054324;28;20056;-75
2023/01/13 02:59:09;;;;;;;48.97;6.45;;;;;;;7.17;100.00;100271.44;5054004;28;20037;-74
2023/01/13 03:01:34;;;;;;;54.20;6.88;;;;;;;7.14;100.00;100271.72;5053905;28;20025;-73
2023/01/13 03:04:13;;;;;;;42.58;6.55;;;;;;;7.07;100.00;100269.56;5053654;28;20040;-75
2023/01/13 03:06:53;;;;;;;36.53;5.15;;;;;;;7.06;100.00;100277.63;5053641;28;20036;-81
2023/01/13 03:09:26;;;;;;;39.10;5.80;;;;;;;7.00;100.00;100279.00;5054361;28;20029;-74
2023/01/13 03:12:03;;;;;;;41.40;5.95;;;;;;;7.00;100.00;100284.28;5054222;28;20029;-74
2023/01/13 03:14:37;;;;;;;35.13;5.25;;;;;;;6.98;100.00;100280.91;5053800;28;20091;-74
2023/01/13 03:17:11;;;;;;;38.55;5.63;;;;;;;6.90;100.00;100270.16;5053457;28;20032;-74
2023/01/13 03:19:50;;;;;;;41.45;6.22;;;;;;;6.80;100.00;100263.97;5053739;28;20033;-74
2023/01/13 03:22:29;;;;;;;35.88;4.90;;;;;;;6.74;100.00;100251.25;5054410;28;20032;-74
2023/01/13 03:25:27;;;;;;;37.15;5.30;;;;;;;6.66;100.00;100263.31;5053584;28;20473;-74
2023/01/13 03:27:57;;;;;;;38.22;4.75;;;;;;;6.58;100.00;100249.88;5049145;28;20053;-74
2023/01/13 03:30:31;;;;;;;40.08;5.65;;;;;;;6.49;100.00;100259.44;5053682;28;20484;-73
2023/01/13 03:33:16;;;;;;;36.33;4.72;;;;;;;6.50;100.00;100250.53;5053243;28;20470;-74
2023/01/13 03:35:50;;;;;;;34.85;4.75;;;;;;;6.52;100.00;100245.09;5053515;28;20104;-74
2023/01/13 03:38:49;;;;;;;25.20;4.50;;;;;;;6.56;100.00;100235.97;5053848;28;20037;-74
2023/01/13 03:41:24;;;;;;;28.92;3.40;;;;;;;6.51;100.00;100240.81;5046121;28;20041;-74
2023/01/13 03:44:22;;;;;;;24.55;3.78;;;;;;;6.51;100.00;100240.81;5053659;28;20025;-74
2023/01/13 03:47:02;;;;;;;32.90;3.55;;;;;;;6.56;100.00;100237.78;5049283;28;20045;-75
2023/01/13 03:49:38;;;;;;;23.55;4.03;;;;;;;6.63;100.00;100242.44;5053004;28;20040;-75
2023/01/13 03:52:08;;;;;;;34.33;3.92;;;;;;;6.63;100.00;100231.84;5053323;28;20038;-74
2023/01/13 03:54:43;;;;;;;29.70;3.90;;;;;;;6.66;100.00;100252.75;5052915;28;20028;-74
2023/01/13 03:57:12;;;;;;;23.77;3.30;;;;;;;6.67;100.00;100241.22;5052610;28;20044;-74
2023/01/13 03:59:41;;;;;;;25.35;3.80;;;;;;;6.67;100.00;100240.34;5053079;28;20033;-74
2023/01/13 04:02:25;;;;;;;23.10;3.80;;;;;;;6.66;100.00;100246.63;5053196;28;20418;-74
2023/01/13 04:04:57;;;;;;;14.57;3.15;;;;;;;6.60;100.00;100240.03;5052882;28;20028;-74
2023/01/13 04:07:29;;;;;;;26.25;3.85;;;;;;;6.54;100.00;100248.47;5052925;28;20033;-74
2023/01/13 04:09:56;;;;;;;21.52;3.40;;;;;;;6.51;100.00;100244.28;5053600;28;20112;-74
2023/01/13 04:15:26;;;;;;;25.23;4.32;;;;;;;6.60;100.00;100250.63;5052901;28;20094;-74
2023/01/13 04:17:52;;;;;;;23.05;3.58;;;;;;;6.60;100.00;100245.31;5052794;28;20029;-74
2023/01/13 04:20:17;;;;;;;19.23;3.53;;;;;;;6.62;100.00;100253.13;5052761;28;20458;-74
2023/01/13 04:22:42;;;;;;;28.95;3.85;;;;;;;6.64;100.00;100244.09;5052765;28;20033;-73
2023/01/13 04:25:08;;;;;;;30.35;3.85;;;;;;;6.67;100.00;100248.28;5052394;28;20033;-74
2023/01/13 04:27:34;;;;;;;27.30;4.53;;;;;;;6.62;100.00;100253.13;5052854;28;20052;-74
2023/01/13 04:29:59;;;;;;;14.57;2.90;;;;;;;6.67;100.00;100243.00;5053081;28;20036;-74
2023/01/13 04:32:24;;;;;;;27.63;3.92;;;;;;;6.75;100.00;100245.00;5052722;28;20052;-74
2023/01/13 04:34:50;;;;;;;25.23;3.97;;;;;;;6.80;100.00;100248.94;5052819;28;20024;-78
2023/01/13 04:37:15;;;;;;;20.20;3.17;;;;;;;6.87;100.00;100265.13;5052860;28;20121;-74
2023/01/13 04:39:40;;;;;;;23.38;4.18;;;;;;;6.93;100.00;100245.28;5052909;28;20053;-74
2023/01/13 04:42:06;;;;;;;19.38;2.95;;;;;;;6.96;100.00;100253.78;5052746;28;20033;-74
2023/01/13 04:44:34;;;;;;;20.88;3.28;;;;;;;7.02;100.00;100258.53;5051547;28;20385;-74
2023/01/13 04:47:00;;;;;;;17.55;2.60;;;;;;;7.05;100.00;100266.22;5053441;28;20041;-74
2023/01/13 04:49:25;;;;;;;19.25;2.88;;;;;;;7.02;100.00;100258.53;5056431;28;20036;-73
2023/01/13 04:51:52;;;;;;;18.17;2.85;;;;;;;6.97;100.00;100260.75;5056265;28;20049;-78
2023/01/13 04:54:18;;;;;;;18.42;3.03;;;;;;;6.88;100.00;100280.00;5056520;28;20122;-74
2023/01/13 04:56:43;;;;;;;13.00;2.75;;;;;;;6.92;100.00;100275.31;5056422;28;20053;-74
2023/01/13 04:59:10;;;;;;;17.27;3.67;;;;;;;6.93;100.00;100264.63;5055106;28;20041;-73
2023/01/13 05:01:36;;;;;;;25.40;3.25;;;;;;;6.93;100.00;100280.47;5054984;28;20120;-73
2023/01/13 05:04:02;;;;;;;17.52;3.03;;;;;;;6.92;100.00;100265.56;5056146;28;20116;-74
2023/01/13 05:06:28;;;;;;;18.20;2.95;;;;;;;6.86;100.00;100271.38;5056197;28;20035;-74
2023/01/13 05:08:54;;;;;;;20.60;3.40;;;;;;;6.80;100.00;100271.91;5056557;28;20037;-78
2023/01/13 05:16:59;;;;;;;26.13;3.35;;;;;;;6.68;100.00;100266.66;5056209;28;20051;-74
2023/01/13 05:19:26;;;;;;;22.25;2.78;;;;;;;6.66;100.00;100267.78;5056274;28;20040;-74
2023/01/13 05:27:19;;;;;;;22.75;2.95;;;;;;;6.45;100.00;100265.94;5056318;28;20496;-74
2023/01/13 05:29:44;;;;;;;23.67;3.50;;;;;;;6.40;100.00;100262.81;5055828;28;20033;-74
2023/01/13 05:32:09;;;;;;;22.27;3.72;;;;;;;6.37;100.00;100254.31;5055750;28;20534;-74
2023/01/13 05:34:35;;;;;;;26.52;3.63;;;;;;;6.33;100.00;100272.25;5055435;28;20158;-74
2023/01/13 05:37:00;;;;;;;33.15;4.50;;;;;;;6.30;100.00;100265.38;5055362;28;20048;-75
2023/01/13 05:39:26;;;;;;;23.65;3.30;;;;;;;6.25;100.00;100256.16;5055689;28;20473;-74
2023/01/13 05:44:35;;;;;;;20.77;4.20;;;;;;;6.28;100.00;100262.03;5056088;28;20048;-74
2023/01/13 05:47:01;;;;;;;21.27;3.35;;;;;;;6.22;100.00;100253.78;5055550;28;20025;-75
2023/01/13 05:49:26;;;;;;;16.25;3.40;;;;;;;6.24;100.00;100257.13;5054122;28;20036;-74
2023/01/13 05:51:51;;;;;;;22.05;3.45;;;;;;;6.29;100.00;100268.16;5054185;28;20076;-73
2023/01/13 05:54:17;;;;;;;22.00;3.38;;;;;;;6.33;100.00;100288.91;5055354;28;20095;-74
2023/01/13 05:56:42;;;;;;;19.17;3.50;;;;;;;6.41;100.00;100284.81;5055214;28;20140;-74
2023/01/13 05:59:07;;;;;;;22.60;3.40;;;;;;;6.48;100.00;100265.69;5053877;28;20048;-74
2023/01/13 06:01:34;;;;;;;25.70;4.00;;;;;;;6.54;100.00;100269.63;5055641;28;20037;-73
2023/01/13 06:03:59;;;;;;;20.38;3.17;;;;;;;6.60;100.00;100266.47;5055168;28;20086;-73
2023/01/13 06:06:25;;;;;;;22.35;3.45;;;;;;;6.59;100.00;100277.19;5055283;28;20037;-74
2023/01/13 06:08:50;;;;;;;26.25;3.28;;;;;;;6.67;100.00;100275.56;5055237;28;20031;-73
2023/01/13 06:11:15;;;;;;;18.33;3.05;;;;;;;6.71;100.00;100271.69;5055118;28;20052;-73
2023/01/13 06:13:41;;;;;;;25.52;3.60;;;;;;;6.74;100.00;100270.59;5055041;28;20029;-75
2023/01/13 06:16:06;;;;;;;20.98;3.70;;;;;;;6.73;100.00;100281.31;5055222;28;20115;-75
2023/01/13 06:18:32;;;;;;;17.70;3.05;;;;;;;6.76;100.00;100287.16;5055386;28;20037;-73
2023/01/13 06:20:57;;;;;;;21.95;3.60;;;;;;;6.76;100.00;100276.59;5055166;28;20452;-72
2023/01/13 06:23:23;;;;;;;25.50;4.15;;;;;;;6.80;100.00;100288.59;5055281;28;20040;-72
2023/01/13 06:26:00;;;;;;;25.35;3.95;;;;;;;6.82;100.00;100284.03;5054796;28;20074;-74
2023/01/13 06:28:26;;;;;;;30.08;4.57;;;;;;;6.89;100.00;100293.09;5054774;28;20331;-75
2023/01/13 06:30:56;;;;;;;20.17;4.18;;;;;;;6.91;100.00;100289.50;5054749;28;20047;-74
2023/01/13 06:33:35;;;;;;;27.25;3.90;;;;;;;6.87;100.00;100299.50;5054588;28;20465;-74
2023/01/13 06:36:06;;;;;;;21.63;3.83;;;;;;;6.89;100.00;100284.34;5054886;28;20054;-74
2023/01/13 06:38:35;;;;;;;30.17;4.20;;;;;;;6.91;100.00;100289.50;5054486;28;20025;-74
2023/01/13 06:41:00;;;;;;;33.60;3.45;;;;;;;6.88;100.00;100285.31;5053174;28;20119;-73
2023/01/13 06:43:26;;;;;;;18.63;3.55;;;;;;;6.85;100.00;100307.56;5052786;28;20111;-73
2023/01/13 06:45:53;;;;;;;31.17;4.90;;;;;;;6.87;100.00;100302.16;5053996;28;20390;-73
2023/01/13 06:48:22;;;;;;;23.42;3.78;;;;;;;6.84;100.00;100290.03;5054881;28;20031;-72
2023/01/13 06:50:47;;;;;;;28.33;3.58;;;;;;;6.84;100.00;100307.72;5054616;28;20029;-73
2023/01/13 06:53:13;;;;;;;21.77;3.28;;;;;;;6.84;100.00;100315.63;5053846;28;20444;-74
2023/01/13 06:55:38;;;;;;;20.15;3.40;;;;;;;6.85;100.00;100307.56;5053834;28;20064;-74
2023/01/13 06:58:04;;;;;;;28.15;4.78;;;;;;;6.86;100.00;100324.28;5054676;28;20116;-73
2023/01/13 07:00:31;;;;;;;17.83;3.15;;;;;;;6.90;100.00;100317.78;5054102;28;20060;-74
2023/01/13 07:03:07;;;;;;;22.20;2.90;;;;;;;6.93;100.00;100314.03;5053985;28;20040;-74
2023/01/13 07:05:33;;;;;;;21.73;3.90;;;;;;;6.94;100.00;100321.84;5054033;28;20043;-73
2023/01/13 07:07:58;;;;;;;35.63;4.15;;;;;;;6.96;100.00;100316.44;5053966;28;20533;-73
2023/01/13 07:10:24;;;;;;;19.15;3.22;;;;;;;7.01;100.00;100311.56;5053468;28;20500;-73
2023/01/13 07:15:33;;;;;;;25.05;3.67;;;;;;;6.99;100.00;100311.69;5053894;28;20047;-74
2023/01/13 07:17:59;;;;;;;25.13;4.18;;;;;;;6.96;100.00;100314.59;5053693;28;20041;-73
2023/01/13 07:20:24;;;;;;;23.65;3.20;;;;;;;7.01;100.00;100317.69;5053730;28;20033;-74
2023/01/13 07:22:54;;;;;;;23.55;3.45;;;;;;;7.02;100.00;100332.59;5054403;28;20044;-75
2023/01/13 07:25:20;;;;;;;20.30;3.47;;;;;;;7.02;100.00;100319.38;5053638;28;20075;-74
2023/01/13 07:27:45;;;;;;;23.50;3.75;;;;;;;7.04;100.00;100329.84;5053625;28;20094;-74
2023/01/13 07:30:11;;;;;;;28.63;4.10;;;;;;;7.09;100.00;100324.16;5053494;28;20041;-76
2023/01/13 07:32:37;;;;;;;37.38;4.57;;;;;;;7.10;100.00;100325.84;5053998;28;20044;-75
2023/01/13 07:35:05;;;;;;;27.25;4.72;;;;;;;7.11;100.00;100335.47;5053521;28;20033;-75
2023/01/13 07:37:32;;;;;;;24.38;4.18;;;;;;;7.11;100.00;100327.53;5053635;28;20148;-75
2023/01/13 07:39:58;;;;;;;26.13;3.88;;;;;;;7.12;100.00;100331.81;5053964;28;20033;-75
2023/01/13 07:45:08;;;;;;;14.57;3.22;;;;;;;7.10;100.00;100328.47;5053862;28;20110;-73
2023/01/13 07:47:33;;;;;;;22.45;3.97;;;;;;;7.13;100.00;100339.63;5053068;28;20143;-73
2023/01/13 07:49:59;;;;;;;26.45;3.90;;;;;;;7.16;100.00;100341.19;5052304;28;20037;-74
2023/01/13 07:52:24;;;;;;;25.85;3.85;;;;;;;7.18;100.00;100352.47;5053137;28;20477;-73
2023/01/13 07:54:49;;;;;;;30.73;4.18;;;;;;;7.15;100.00;100356.25;5053227;28;20450;-73
2023/01/13 07:57:15;;;;;;;31.30;3.95;;;;;;;7.13;100.00;100370.56;5053532;28;20132;-74
2023/01/13 07:59:40;;;;;;;28.40;4.70;;;;;;;7.05;100.00;100373.84;5051899;28;20059;-76
2023/01/13 08:02:10;;;;;;;33.53;4.60;;;;;;;6.97;100.00;100361.25;5053324;28;20060;-74
2023/01/13 08:04:36;;;;;;;31.45;4.15;;;;;;;6.84;100.00;100358.78;5053033;28;20040;-73
2023/01/13 08:07:03;;;;;;;30.00;4.85;;;;;;;6.70;100.00;100373.16;5052954;28;20025;-73
2023/01/13 08:09:28;;;;;;;22.10;3.50;;;;;;;6.59;100.00;100378.47;5053462;28;20029;-74
2023/01/13 08:14:37;;;;;;;30.85;3.92;;;;;;;6.47;100.00;100382.09;5053151;28;20052;-74
2023/01/13 08:17:03;;;;;;;34.35;4.47;;;;;;;6.50;100.00;100374.75;5052940;28;20029;-74
2023/01/13 08:19:28;;;;;;;32.05;5.78;;;;;;;6.47;100.00;100380.28;5052854;28;20043;-73
2023/01/13 08:21:53;;;;;;;32.75;4.10;;;;;;;6.47;100.00;100382.09;5053836;28;20032;-74
2023/01/13 08:24:19;;;;;;;28.75;4.50;;;;;;;6.47;100.00;100397.97;5056948;28;20061;-74
2023/01/13 08:26:44;;;;;;;26.50;5.22;;;;;;;6.44;100.00;100387.63;5057183;28;20055;-73
2023/01/13 08:29:09;;;;;;;32.15;5.45;;;;;;;6.40;100.00;100404.69;5056644;28;20119;-72
2023/01/13 08:31:34;;;;;;;28.52;3.83;;;;;;;6.33;100.00;100399.91;5057530;28;20069;-72
2023/01/13 08:34:00;;;;;;;40.70;4.60;;;;;;;6.30;100.00;100408.06;5055468;28;20061;-73
2023/01/13 08:36:25;;;;;;;39.60;4.63;;;;;;;6.22;100.00;100393.78;5056436;28;20033;-71
2023/01/13 08:38:51;;;;;;;29.60;4.13;;;;;;;6.25;100.00;100396.19;5056720;28;20041;-72
2023/01/13 08:41:53;;;;;;;29.63;4.15;;;;;;;6.26;100.00;100405.81;5056998;28;20029;-71
2023/01/13 08:44:02;;;;;;;29.88;4.38;;;;;;;6.28;100.00;100386.19;5056360;28;20079;-72
2023/01/13 08:46:27;;;;;;;33.47;4.75;;;;;;;6.36;100.00;100377.69;5056707;28;20116;-72
2023/01/13 08:48:52;;;;;;;25.92;4.72;;;;;;;6.39;100.00;100393.28;5056614;28;20029;-72
2023/01/13 08:51:18;;;;;;;40.70;4.43;;;;;;;6.46;100.00;100396.28;5056855;28;20021;-73
2023/01/13 08:53:43;;;;;;;33.72;5.20;;;;;;;6.60;100.00;100422.44;5056759;28;20071;-72
2023/01/13 08:56:12;;;;;;;26.00;4.30;;;;;;;6.67;100.00;100421.00;5056423;28;20106;-74
2023/01/13 08:58:37;;;;;;;28.48;4.45;;;;;;;6.78;100.00;100416.63;5056392;28;20128;-73
2023/01/13 09:01:05;;;;;;;30.95;5.07;;;;;;;6.92;100.00;100426.09;5056709;28;20438;-71
2023/01/13 09:03:30;;;;;;;24.48;3.10;;;;;;;7.01;100.00;100444.66;5056307;28;20072;-71
2023/01/13 09:05:55;;;;;;;29.45;4.32;;;;;;;7.09;100.00;100428.19;5056332;28;20052;-72
2023/01/13 09:08:21;;;;;;;28.63;4.65;;;;;;;7.13;100.00;100436.69;5054913;28;20033;-72
2023/01/13 09:10:46;;;;;;;27.73;4.78;;;;;;;7.14;100.00;100433.09;5055888;28;20499;-72
2023/01/13 09:13:12;;;;;;;25.63;4.82;;;;;;;7.12;100.00;100433.22;5056048;28;20037;-73
2023/01/13 09:15:43;;;;;;;30.98;5.13;;;;;;;7.10;100.00;100442.25;5056000;28;20116;-72
2023/01/13 09:18:09;;;;;;;27.67;5.03;;;;;;;7.11;100.00;100442.13;5056117;28;20037;-73
2023/01/13 09:20:35;;;;;;;33.63;4.68;;;;;;;7.12;100.00;100446.44;5055953;28;20037;-72
2023/01/13 09:23:01;;;;;;;28.02;4.00;;;;;;;7.18;100.00;100440.66;5056487;28;20086;-73
2023/01/13 09:25:26;;;;;;;25.85;4.68;;;;;;;7.23;100.00;100456.97;5056218;28;20492;-75
2023/01/13 09:27:52;;;;;;;20.52;3.50;;;;;;;7.28;100.00;100456.59;5055796;28;20033;-73
2023/01/13 09:30:17;;;;;;;24.48;3.80;;;;;;;7.34;100.00;100469.31;5055585;28;20032;-73
2023/01/13 09:32:42;;;;;;;24.08;3.60;;;;;;;7.38;100.00;100491.09;5055969;28;20044;-73
2023/01/13 09:35:08;;;;;;;31.38;4.68;;;;;;;7.43;100.00;100458.94;5055438;28;20025;-73
2023/01/13 09:37:36;;;;;;;21.67;4.07;;;;;;;7.42;100.00;100471.34;5055662;28;20033;-71
2023/01/13 09:40:05;;;;;;;25.27;3.78;;;;;;;7.44;100.00;100464.09;5055562;28;20029;-72
2023/01/13 09:45:49;;;;;;;22.52;3.55;;;;;;;7.56;100.00;100478.13;5056109;28;20385;-74
2023/01/13 09:48:25;;;;;;;17.95;3.25;;;;;;;7.55;100.00;100498.47;5055963;28;20108;-73
2023/01/13 09:51:19;;;;;;;31.85;4.15;;;;;;;7.56;100.00;100497.50;5055556;28;20116;-73
2023/01/13 09:53:59;;;;;;;22.63;3.80;;;;;;;7.58;100.00;100502.66;5055879;28;20029;-73
2023/01/13 09:56:25;;;;;;;23.77;3.33;;;;;;;7.57;100.00;100516.88;5055389;28;20052;-74
2023/01/13 09:58:51;;;;;;;16.85;3.13;;;;;;;7.57;100.00;100515.06;5055032;28;20033;-74
2023/01/13 10:01:33;;;;;;;21.45;3.08;;;;;;;7.53;100.00;100515.44;5054128;28;20078;-73
2023/01/13 10:04:03;;;;;;;28.08;3.25;;;;;;;7.53;100.00;100518.94;5053932;28;20028;-75
2023/01/13 10:06:37;;;;;;;24.15;3.70;;;;;;;7.55;100.00;100524.09;5055468;28;20029;-75
2023/01/13 10:09:04;;;;;;;18.65;3.60;;;;;;;7.53;100.00;100536.63;5054798;28;20036;-76
2023/01/13 10:14:36;;;;;;;24.52;4.20;;;;;;;7.48;100.00;100539.66;5055407;28;20040;-74
2023/01/13 10:17:17;;;;;;;27.90;3.72;;;;;;;7.49;100.00;100528.09;5055472;28;20103;-74
2023/01/13 10:20:10;;;;;;;19.50;3.70;;;;;;;7.51;100.00;100546.50;5055088;28;20377;-74
2023/01/13 10:23:13;;;;;;;33.40;4.00;;;;;;;7.49;100.00;100543.97;5054633;28;20032;-75
2023/01/13 10:25:59;;;;;;;28.13;3.60;;;;;;;7.49;100.00;100549.25;5042591;28;20471;-77
2023/01/13 10:28:25;;;;;;;15.20;3.25;;;;;;;7.47;100.00;100551.22;5055050;28;20181;-74
2023/01/13 10:30:51;;;;;;;27.02;4.38;;;;;;;7.51;100.00;100552.66;5054357;28;20513;-75
2023/01/13 10:33:27;;;;;;;33.63;5.13;;;;;;;7.47;100.00;100548.56;5054615;28;20124;-76
2023/01/13 10:36:01;;;;;;;31.10;5.03;;;;;;;7.47;100.00;100555.69;5053355;28;20112;-75
2023/01/13 10:38:55;;;;;;;23.77;3.47;;;;;;;7.49;100.00;100569.63;5054506;28;20115;-76
2023/01/13 10:41:27;;;;;;;31.08;4.00;;;;;;;7.52;100.00;100548.19;5052539;28;20128;-74
2023/01/13 10:44:00;;;;;;;28.00;3.67;;;;;;;7.57;100.00;100567.19;5054631;28;20066;-75
2023/01/13 10:46:26;;;;;;;19.88;2.95;;;;;;;7.62;100.00;100593.28;5053967;28;20129;-75
2023/01/13 10:49:20;;;;;;;15.07;3.17;;;;;;;7.65;100.00;100572.69;5054537;28;20029;-75
2023/01/13 10:51:46;;;;;;;19.55;3.38;;;;;;;7.71;100.00;100581.94;5054338;28;20033;-74
2023/01/13 10:54:14;;;;;;;28.27;3.70;;;;;;;7.77;100.00;100581.41;5052908;28;20094;-76
2023/01/13 10:56:42;;;;;;;27.25;3.20;;;;;;;7.77;100.00;100579.59;5053920;28;20500;-77
2023/01/13 10:59:12;;;;;;;19.40;2.90;;;;;;;7.77;100.00;100584.06;5054466;28;20032;-77
2023/01/13 11:01:41;;;;;;;18.83;3.17;;;;;;;7.80;100.00;100589.13;5054478;28;20033;-75
2023/01/13 11:05:02;;;;;;;33.08;3.72;;;;;;;7.84;100.00;100595.00;5052926;28;20033;-76
2023/01/13 11:07:45;;;;;;;22.35;3.95;;;;;;;7.85;100.00;100599.31;5021396;28;20045;-75
2023/01/13 11:10:19;;;;;;;19.95;4.03;;;;;;;7.90;100.00;100584.72;5054545;28;20472;-75
2023/01/13 11:13:02;;;;;;;22.92;3.70;;;;;;;7.94;100.00;100610.00;5054093;28;20052;-75
2023/01/13 11:15:35;;;;;;;28.45;4.47;;;;;;;7.93;100.00;100608.31;5054711;28;20059;-75
2023/01/13 11:18:08;;;;;;;19.02;3.35;;;;;;;7.88;100.00;100615.81;5055305;28;20036;-74
2023/01/13 11:20:38;;;;;;;22.52;4.07;;;;;;;7.88;100.00;100630.84;5054355;28;20086;-74
2023/01/13 11:23:13;;;;;;;18.67;3.28;;;;;;;7.85;100.00;100626.69;5054987;28;20128;-73
2023/01/13 11:25:43;;;;;;;21.02;3.10;;;;;;;7.91;100.00;100644.72;5054283;28;20079;-76
2023/01/13 11:28:30;;;;;;;23.98;3.38;;;;;;;8.00;100.00;100640.47;5053196;28;20418;-77
2023/01/13 11:31:04;;;;;;;22.80;4.03;;;;;;;8.08;100.00;100642.47;5053905;28;20151;-75
2023/01/13 11:33:37;;;;;;;23.17;4.28;;;;;;;8.07;100.00;100646.06;5053539;28;20036;-74
2023/01/13 11:36:11;;;;;;;21.85;3.45;;;;;;;8.07;100.00;100644.25;5053047;28;20029;-78
2023/01/13 11:38:46;;;;;;;31.35;5.40;;;;;;;8.12;100.00;100639.44;5053433;28;20025;-75
2023/01/13 11:41:33;;;;;;;26.75;3.78;;;;;;;8.17;100.00;100644.34;5053928;28;20033;-78
2023/01/13 11:44:06;;;;;;;18.92;3.35;;;;;;;8.26;100.00;100640.09;5053575;28;20033;-74
2023/01/13 11:46:31;;;;;;;24.25;3.47;;;;;;;8.39;100.00;100642.53;5053761;28;20072;-74
2023/01/13 11:48:58;;;;;;;22.10;3.20;;;;;;;8.44;100.00;100654.47;5053022;28;20414;-73
2023/01/13 11:51:42;;;;;;;20.90;2.85;;;;;;;8.46;100.00;100649.88;5053230;28;20075;-77
2023/01/13 11:54:24;;;;;;;20.75;3.05;;;;;;;8.54;100.00;100653.69;5052904;28;20033;-75
2023/01/13 11:57:11;;;;;;;18.58;2.90;;;;;;;8.57;100.00;100645.47;5052615;28;20053;-76
2023/01/13 12:00:07;;;;;;;23.13;3.85;;;;;;;8.60;100.00;100658.47;5052945;28;20045;-79
2023/01/13 12:02:49;;;;;;;15.73;3.72;;;;;;;8.58;100.00;100661.28;5053433;28;20405;-75
2023/01/13 12:05:46;;;;;;;23.65;3.58;;;;;;;8.63;100.00;100663.53;5053322;28;20083;-76
2023/01/13 12:08:24;;;;;;;18.95;2.97;;;;;;;8.70;100.00;100667.31;5029491;28;20116;-76
2023/01/13 12:11:13;;;;;;;28.08;3.40;;;;;;;8.61;100.00;100676.06;5052827;28;20461;-75